Terminal Aerodrome Forecast
Issued by NWS

Home | Current Version | Previous Version | Text Only | Print | Product List | Glossary On
Versions: 1 2 3 4 5 6 7 8 9 10 11 12 13 14 15 16 17 18 19 20 21 22 23 24 25 26
000
FTUS44 KOUN 031731
TAFGAG
TAF
KGAG 031731Z 0318/0418 18010KT P6SM SCT080 BKN200
      TEMPO 0323/0403 6SM -TSRA SCT040CB
     FM040300 15010KT 5SM -TSRA SCT040 BKN080CB
     FM041200 16008KT P6SM FEW020 BKN070 PROB30 0412/0416 5SM -TSRA
      BKN050CB=

USA.gov is the U.S. government's official web portal to all federal, state and local government web resources and services.